Time;durP1;ratioP1;P1;durP2;ratioP2;P2;SDS_P1;SDS_P2;PMS_P1;PMS_P2;Temp;Humidity;BMP_temperature;BMP_pressure;BME280_temperature;BME280_humidity;BME280_pressure;Samples;Min_cycle;Max_cycle;Signal;HPM_P1;HPM_P2
2024/03/02 00:00:51;;;;;;;1.88;0.88;;;21.40;55.10;;;;;;5013598;27;89440;-56
2024/03/02 00:03:17;;;;;;;;;;;21.40;55.30;;;;;;5021351;27;87638;-58
2024/03/02 00:05:43;;;;;;;1.77;1.25;;;21.50;55.20;;;;;;5012556;27;87356;-56
2024/03/02 00:08:09;;;;;;;1.80;0.73;;;21.40;55.10;;;;;;5010456;27;88051;-55
2024/03/02 00:10:41;;;;;;;1.40;0.80;;;21.40;55.30;;;;;;5019865;27;87840;-55
2024/03/02 00:13:08;;;;;;;0.90;0.55;;;21.40;55.10;;;;;;5015403;28;87503;-58
2024/03/02 00:15:46;;;;;;;0.85;0.65;;;21.40;55.20;;;;;;5013061;27;87022;-56
2024/03/02 00:18:19;;;;;;;1.67;0.90;;;21.30;55.30;;;;;;5025597;27;88087;-57
2024/03/02 00:20:44;;;;;;;1.95;0.80;;;21.40;55.20;;;;;;5030283;27;89993;-57
2024/03/02 00:23:16;;;;;;;1.45;0.80;;;21.30;55.30;;;;;;5019514;27;88468;-59
2024/03/02 00:25:46;;;;;;;2.45;1.00;;;21.40;55.20;;;;;;5008629;27;86883;-58
2024/03/02 00:28:19;;;;;;;1.75;0.98;;;21.30;55.10;;;;;;5029549;28;88801;-57
2024/03/02 00:31:04;;;;;;;2.75;0.90;;;21.30;55.30;;;;;;5013527;27;87786;-57
2024/03/02 00:33:42;;;;;;;2.08;1.00;;;21.30;55.30;;;;;;5015156;27;87454;-55
2024/03/02 00:36:14;;;;;;;1.02;0.70;;;21.30;55.30;;;;;;5012487;27;87554;-55
2024/03/02 00:38:51;;;;;;;1.35;1.05;;;21.30;55.20;;;;;;5012107;27;88356;-57
2024/03/02 00:41:29;;;;;;;1.85;0.90;;;21.30;55.10;;;;;;5013850;27;87778;-57
2024/03/02 00:44:03;;;;;;;2.47;0.80;;;21.30;55.30;;;;;;5016845;27;87048;-56
2024/03/02 00:46:38;;;;;;;2.08;1.10;;;21.30;55.30;;;;;;5014717;27;87096;-57
2024/03/02 00:49:06;;;;;;;2.58;1.35;;;21.20;55.30;;;;;;5001387;28;88868;-56
2024/03/02 00:51:34;;;;;;;1.77;0.90;;;21.30;55.30;;;;;;5011446;27;88752;-58
2024/03/02 00:54:03;;;;;;;0.82;0.52;;;21.20;55.20;;;;;;5027769;27;87190;-60
2024/03/02 00:56:30;;;;;;;1.35;0.65;;;21.20;55.20;;;;;;5013758;27;86928;-54
2024/03/02 00:58:56;;;;;;;0.90;0.60;;;21.20;55.10;;;;;;5038300;27;87555;-54
2024/03/02 01:01:22;;;;;;;2.03;1.00;;;21.20;55.20;;;;;;5026856;28;87539;-58
2024/03/02 01:03:48;;;;;;;2.55;1.00;;;21.20;55.10;;;;;;5024634;27;87273;-56
2024/03/02 01:06:15;;;;;;;1.20;0.70;;;21.20;55.00;;;;;;5025297;27;87509;-57
2024/03/02 01:08:41;;;;;;;1.33;0.70;;;21.20;55.10;;;;;;5011012;27;88060;-57
2024/03/02 01:11:07;;;;;;;4.10;1.77;;;21.20;55.10;;;;;;5017240;28;88482;-57
2024/03/02 01:13:32;;;;;;;1.08;0.68;;;21.20;55.10;;;;;;5012408;27;88459;-60
2024/03/02 01:15:59;;;;;;;1.45;0.95;;;21.20;55.00;;;;;;5023895;28;87985;-56
2024/03/02 01:18:26;;;;;;;1.80;0.60;;;21.20;55.10;;;;;;5023981;27;88157;-57
2024/03/02 01:20:52;;;;;;;1.63;0.60;;;21.20;55.10;;;;;;5031971;27;87775;-58
2024/03/02 01:23:24;;;;;;;1.38;0.90;;;21.20;55.00;;;;;;5018552;27;87183;-54
2024/03/02 01:25:51;;;;;;;1.02;0.60;;;21.10;55.00;;;;;;5039257;27;87151;-57
2024/03/02 01:28:18;;;;;;;0.63;0.50;;;21.10;55.00;;;;;;5017935;28;90734;-58
2024/03/02 01:30:44;;;;;;;1.75;0.90;;;21.10;55.00;;;;;;5032934;27;88630;-57
2024/03/02 01:33:11;;;;;;;1.63;0.70;;;21.10;55.00;;;;;;5032053;27;86957;-58
2024/03/02 01:35:37;;;;;;;1.58;0.85;;;21.10;55.00;;;;;;5029297;27;87500;-57
2024/03/02 01:38:05;;;;;;;1.00;0.75;;;21.10;55.10;;;;;;5021122;27;90397;-57
2024/03/02 01:40:35;;;;;;;0.90;0.60;;;21.10;55.10;;;;;;5011685;27;88813;-52
2024/03/02 01:43:02;;;;;;;1.83;0.88;;;21.10;55.10;;;;;;5030277;28;87536;-59
2024/03/02 01:45:28;;;;;;;3.65;1.30;;;21.10;55.00;;;;;;5030550;27;87441;-60
2024/03/02 01:47:54;;;;;;;0.93;0.57;;;21.10;54.90;;;;;;5027616;27;88420;-59
2024/03/02 01:50:29;;;;;;;1.00;0.70;;;21.10;55.00;;;;;;5029920;27;87847;-57
2024/03/02 01:52:55;;;;;;;1.63;0.95;;;21.10;54.90;;;;;;5011487;27;87381;-56
2024/03/02 01:55:22;;;;;;;0.90;0.60;;;21.00;55.00;;;;;;5028056;27;87552;-56
2024/03/02 01:57:50;;;;;;;1.02;0.60;;;21.00;55.00;;;;;;5027097;27;90290;-57
2024/03/02 02:00:16;;;;;;;1.17;0.60;;;21.00;54.90;;;;;;5014219;27;87330;-58
2024/03/02 02:02:43;;;;;;;0.80;0.68;;;21.00;54.70;;;;;;5034073;27;88116;-58
2024/03/02 02:05:09;;;;;;;2.03;0.98;;;21.00;54.70;;;;;;5034284;27;87107;-57
2024/03/02 02:07:35;;;;;;;1.17;0.68;;;21.00;54.60;;;;;;5032434;27;89075;-58
2024/03/02 02:10:01;;;;;;;1.05;0.88;;;21.00;54.80;;;;;;5014047;28;88092;-57
2024/03/02 02:12:27;;;;;;;1.73;0.82;;;21.00;54.60;;;;;;5014759;27;86941;-58
2024/03/02 02:14:54;;;;;;;1.70;0.88;;;21.00;54.70;;;;;;5021123;27;87815;-54
2024/03/02 02:17:21;;;;;;;2.28;1.10;;;21.00;54.70;;;;;;5016952;27;88801;-57
2024/03/02 02:19:47;;;;;;;1.23;0.80;;;21.00;54.70;;;;;;5042514;27;88039;-55
2024/03/02 02:22:13;;;;;;;1.48;0.60;;;21.00;54.70;;;;;;5034809;27;87524;-56
2024/03/02 02:24:42;;;;;;;1.13;0.60;;;21.00;54.60;;;;;;5022017;27;89525;-57
2024/03/02 02:27:14;;;;;;;0.63;0.52;;;21.00;54.50;;;;;;5027971;27;88429;-53
2024/03/02 02:29:40;;;;;;;1.13;0.70;;;21.00;54.50;;;;;;5015946;27;90084;-59
2024/03/02 02:32:07;;;;;;;1.20;0.82;;;21.00;54.60;;;;;;5031803;27;87541;-59
2024/03/02 02:34:33;;;;;;;1.42;0.57;;;20.90;54.50;;;;;;5026841;27;86968;-55
2024/03/02 02:36:59;;;;;;;0.85;0.68;;;20.90;54.50;;;;;;5015648;28;88129;-56
2024/03/02 02:39:25;;;;;;;1.30;0.82;;;20.90;54.70;;;;;;5008438;27;87791;-54
2024/03/02 02:41:50;;;;;;;1.20;0.80;;;20.90;54.40;;;;;;5010384;28;87630;-55
2024/03/02 02:44:17;;;;;;;1.10;0.65;;;20.90;54.50;;;;;;5013546;27;86899;-58
2024/03/02 02:46:43;;;;;;;2.42;1.17;;;20.90;54.70;;;;;;5039937;27;89034;-59
2024/03/02 02:49:08;;;;;;;1.92;1.23;;;20.90;54.60;;;;;;5000846;28;87465;-56
2024/03/02 02:51:34;;;;;;;2.05;0.65;;;20.90;54.60;;;;;;4992944;27;88554;-57
2024/03/02 02:54:00;;;;;;;1.20;0.80;;;20.90;54.60;;;;;;5006160;27;87587;-56
2024/03/02 02:56:27;;;;;;;1.55;0.75;;;20.90;54.60;;;;;;5004352;27;89041;-53
2024/03/02 02:58:54;;;;;;;0.70;0.52;;;20.80;54.60;;;;;;5028302;27;87798;-53
2024/03/02 03:01:20;;;;;;;1.42;0.93;;;20.80;54.50;;;;;;4997291;28;87341;-55
2024/03/02 03:03:46;;;;;;;0.98;0.75;;;20.90;54.60;;;;;;5005061;28;87331;-57
2024/03/02 03:06:12;;;;;;;1.20;0.77;;;20.80;54.40;;;;;;5007941;27;87608;-59
2024/03/02 03:08:38;;;;;;;0.60;0.55;;;20.80;54.60;;;;;;5011098;28;88576;-57
2024/03/02 03:11:06;;;;;;;1.90;0.70;;;20.80;54.50;;;;;;5006926;28;87352;-56
2024/03/02 03:13:33;;;;;;;1.13;0.82;;;20.80;55.10;;;;;;5011907;28;87400;-58
2024/03/02 03:16:00;;;;;;;0.88;0.55;;;20.80;54.40;;;;;;5012904;28;89212;-58
2024/03/02 03:18:25;;;;;;;0.88;0.60;;;20.80;54.40;;;;;;5010993;28;87795;-57
2024/03/02 03:20:51;;;;;;;0.75;0.50;;;20.80;54.50;;;;;;4997494;28;87436;-57
2024/03/02 03:23:17;;;;;;;0.63;0.50;;;20.80;54.40;;;;;;4992423;28;89397;-55
2024/03/02 03:25:43;;;;;;;0.80;0.65;;;20.80;54.50;;;;;;5009043;27;87790;-56
2024/03/02 03:28:12;;;;;;;0.45;0.45;;;20.80;54.50;;;;;;4997531;28;89156;-55
2024/03/02 03:30:38;;;;;;;0.98;0.52;;;20.80;54.50;;;;;;4992435;28;87148;-58
2024/03/02 03:33:06;;;;;;;0.80;0.55;;;20.70;54.50;;;;;;4994190;28;86905;-55
2024/03/02 03:35:34;;;;;;;1.30;0.60;;;20.80;54.60;;;;;;4992929;28;89271;-56
2024/03/02 03:38:00;;;;;;;0.90;0.60;;;20.80;54.50;;;;;;4992848;28;88962;-58
2024/03/02 03:40:27;;;;;;;0.68;0.50;;;20.80;54.50;;;;;;5002960;28;88543;-58
2024/03/02 03:42:53;;;;;;;1.00;0.75;;;20.70;54.50;;;;;;5012182;28;88054;-55
2024/03/02 03:45:21;;;;;;;1.15;0.50;;;20.70;54.50;;;;;;5006517;28;88427;-59
2024/03/02 03:47:48;;;;;;;1.30;0.60;;;20.70;54.50;;;;;;4993156;28;88229;-53
2024/03/02 03:50:14;;;;;;;0.85;0.70;;;20.70;54.70;;;;;;5001718;28;87581;-53
2024/03/02 03:52:39;;;;;;;0.90;0.60;;;20.70;54.50;;;;;;5011672;27;87534;-56
2024/03/02 03:55:06;;;;;;;1.77;0.70;;;20.70;54.50;;;;;;5003710;28;88724;-53
2024/03/02 03:57:31;;;;;;;0.50;0.50;;;20.70;54.50;;;;;;4989870;28;88598;-54
2024/03/02 03:59:58;;;;;;;1.60;0.77;;;20.70;54.60;;;;;;4991659;27;87244;-58
2024/03/02 04:02:25;;;;;;;0.68;0.50;;;20.70;54.60;;;;;;5005588;28;87392;-57
2024/03/02 04:04:51;;;;;;;1.20;0.60;;;20.70;54.60;;;;;;5009973;27;89274;-58
2024/03/02 04:07:16;;;;;;;0.88;0.60;;;20.70;54.40;;;;;;4997262;28;88671;-55
2024/03/02 04:09:42;;;;;;;1.02;0.80;;;20.70;54.50;;;;;;5006307;28;87379;-55
2024/03/02 04:12:08;;;;;;;0.80;0.60;;;20.70;54.40;;;;;;4996819;28;87433;-58
2024/03/02 04:14:34;;;;;;;0.82;0.63;;;20.60;54.40;;;;;;4991754;28;87596;-58
2024/03/02 04:17:00;;;;;;;1.17;0.55;;;20.60;54.40;;;;;;5011368;27;87819;-56
2024/03/02 04:19:26;;;;;;;0.45;0.40;;;20.60;54.50;;;;;;5010809;27;87328;-58
2024/03/02 04:21:51;;;;;;;1.35;0.65;;;20.60;54.50;;;;;;5012165;28;87263;-57
2024/03/02 04:24:18;;;;;;;1.02;0.50;;;20.60;54.30;;;;;;4992564;28;88234;-55
2024/03/02 04:26:44;;;;;;;1.80;0.70;;;20.60;54.60;;;;;;4995062;28;88495;-58
2024/03/02 04:29:10;;;;;;;1.70;0.60;;;20.60;54.50;;;;;;5007493;28;88187;-53
2024/03/02 04:31:35;;;;;;;1.42;0.70;;;20.60;54.40;;;;;;4997989;27;87243;-57
2024/03/02 04:34:01;;;;;;;1.13;0.80;;;20.60;54.40;;;;;;5012446;28;88137;-58
2024/03/02 04:36:27;;;;;;;0.82;0.60;;;20.60;54.50;;;;;;5000444;28;87805;-56
2024/03/02 04:38:54;;;;;;;0.30;0.30;;;20.60;54.50;;;;;;4992124;28;87359;-57
2024/03/02 04:41:19;;;;;;;1.08;0.73;;;20.60;54.50;;;;;;4994380;28;87712;-56
2024/03/02 04:43:45;;;;;;;0.77;0.52;;;20.60;54.50;;;;;;4997736;27;87644;-56
2024/03/02 04:46:12;;;;;;;1.08;0.70;;;20.60;54.50;;;;;;5001043;28;88701;-55
2024/03/02 04:48:39;;;;;;;1.20;0.70;;;20.60;54.40;;;;;;4992590;28;87085;-55
2024/03/02 04:51:04;;;;;;;0.40;0.40;;;20.60;54.50;;;;;;5007498;28;87686;-58
2024/03/02 04:53:34;;;;;;;0.65;0.55;;;20.50;54.50;;;;;;5009373;28;90007;-55
2024/03/02 04:58:43;;;;;;;0.50;0.50;;;20.50;54.50;;;;;;5009711;27;87411;-54
2024/03/02 05:01:51;;;;;;;0.43;0.38;;;20.50;54.90;;;;;;4999954;28;87353;-58
2024/03/02 05:04:18;;;;;;;0.77;0.68;;;20.50;54.90;;;;;;5006461;28;89175;-58
2024/03/02 05:06:43;;;;;;;1.13;0.60;;;20.50;54.90;;;;;;4997877;28;90626;-55
2024/03/02 05:09:09;;;;;;;0.50;0.40;;;20.50;55.00;;;;;;4994738;27;86949;-56
2024/03/02 05:14:01;;;;;;;0.55;0.40;;;20.50;54.90;;;;;;5009649;27;88680;-55
2024/03/02 05:16:27;;;;;;;1.38;0.50;;;20.50;54.90;;;;;;5013006;27;87490;-54
2024/03/02 05:18:54;;;;;;;1.05;0.52;;;20.50;55.00;;;;;;5012627;27;88358;-55
2024/03/02 05:21:22;;;;;;;0.93;0.55;;;20.50;54.90;;;;;;5040904;27;87771;-57
2024/03/02 05:23:49;;;;;;;0.70;0.45;;;20.50;54.90;;;;;;5000340;28;91116;-56
2024/03/02 05:26:16;;;;;;;1.10;0.63;;;20.40;54.80;;;;;;4991640;27;88767;-56
2024/03/02 05:28:42;;;;;;;0.80;0.60;;;20.40;54.90;;;;;;4995222;28;86975;-56
2024/03/02 05:31:11;;;;;;;1.45;0.80;;;20.40;54.80;;;;;;4996055;28;87628;-57
2024/03/02 05:33:40;;;;;;;0.40;0.40;;;20.40;54.90;;;;;;5011127;27;88182;-59
2024/03/02 05:36:06;;;;;;;1.00;0.52;;;20.40;54.90;;;;;;4996288;28;88682;-54
2024/03/02 05:38:33;;;;;;;0.65;0.50;;;20.40;55.00;;;;;;5000423;28;87074;-56
2024/03/02 05:41:00;;;;;;;0.63;0.50;;;20.40;54.90;;;;;;5010864;28;87822;-56
2024/03/02 05:43:26;;;;;;;0.65;0.60;;;20.40;55.00;;;;;;4992966;28;89636;-57
2024/03/02 05:45:53;;;;;;;0.50;0.50;;;20.40;54.80;;;;;;4990390;28;89187;-55
2024/03/02 05:48:18;;;;;;;0.95;0.70;;;20.40;54.90;;;;;;5000303;27;86991;-55
2024/03/02 05:50:44;;;;;;;0.80;0.40;;;20.40;55.00;;;;;;4995769;28;87280;-55
2024/03/02 05:53:10;;;;;;;0.85;0.60;;;20.40;54.90;;;;;;5000879;28;88487;-54
2024/03/02 05:55:36;;;;;;;0.63;0.43;;;20.40;54.90;;;;;;4995816;28;88839;-58
2024/03/02 06:00:46;;;;;;;0.60;0.43;;;20.40;54.90;;;;;;5006200;28;86751;-59
2024/03/02 06:03:12;;;;;;;1.73;0.85;;;20.30;55.00;;;;;;5033242;27;87389;-58
2024/03/02 06:05:37;;;;;;;1.02;0.68;;;20.30;54.90;;;;;;4988430;28;88333;-58
2024/03/02 06:08:03;;;;;;;0.45;0.45;;;20.30;54.90;;;;;;4997519;27;88365;-56
2024/03/02 06:10:34;;;;;;;0.95;0.70;;;20.30;54.80;;;;;;4982540;28;88711;-53
2024/03/02 06:13:00;;;;;;;0.45;0.45;;;20.30;54.60;;;;;;4994603;28;88359;-58
2024/03/02 06:15:26;;;;;;;0.85;0.50;;;20.30;54.80;;;;;;5008176;28;87960;-58
2024/03/02 06:17:55;;;;;;;0.60;0.55;;;20.30;54.70;;;;;;4994103;28;87017;-55
2024/03/02 06:20:21;;;;;;;0.80;0.50;;;20.30;54.70;;;;;;5002811;28;89399;-56
2024/03/02 06:22:47;;;;;;;1.13;0.63;;;20.30;54.60;;;;;;5000113;28;88064;-56
2024/03/02 06:25:16;;;;;;;0.30;0.30;;;20.30;54.80;;;;;;5005860;28;87754;-55
2024/03/02 06:27:44;;;;;;;0.60;0.50;;;20.30;54.70;;;;;;4988278;28;87546;-55
2024/03/02 06:30:10;;;;;;;1.10;0.57;;;20.30;54.70;;;;;;4997660;28;87359;-55
2024/03/02 06:32:37;;;;;;;0.90;0.50;;;20.30;54.70;;;;;;4999763;27;88520;-56
2024/03/02 06:35:04;;;;;;;0.60;0.38;;;20.30;54.70;;;;;;5008929;28;89381;-56
2024/03/02 06:37:32;;;;;;;0.70;0.60;;;20.30;54.60;;;;;;5000971;28;87506;-55
2024/03/02 06:40:00;;;;;;;0.77;0.47;;;20.20;54.60;;;;;;4991364;28;87507;-58
2024/03/02 06:42:26;;;;;;;1.27;0.75;;;20.20;54.50;;;;;;4992376;28;87518;-54
2024/03/02 06:44:54;;;;;;;0.38;0.32;;;20.20;55.20;;;;;;4990762;28;88247;-54
2024/03/02 06:47:20;;;;;;;0.95;0.50;;;20.20;54.60;;;;;;4990740;28;87568;-57
2024/03/02 06:49:46;;;;;;;0.77;0.60;;;20.20;54.50;;;;;;4991921;27;87431;-57
2024/03/02 06:52:12;;;;;;;0.85;0.57;;;20.30;54.50;;;;;;5000812;28;89423;-57
2024/03/02 06:54:50;;;;;;;0.70;0.40;;;20.20;54.50;;;;;;5013213;27;87158;-58
2024/03/02 06:57:19;;;;;;;0.50;0.40;;;20.20;54.60;;;;;;5002063;27;87870;-57
2024/03/02 06:59:45;;;;;;;0.40;0.40;;;20.20;54.50;;;;;;4994024;28;89318;-56
2024/03/02 07:02:10;;;;;;;0.43;0.32;;;20.20;54.30;;;;;;5013744;27;88038;-56
2024/03/02 07:04:37;;;;;;;1.27;0.90;;;20.30;54.40;;;;;;5007443;28;89378;-58
2024/03/02 07:07:05;;;;;;;0.47;0.40;;;20.20;54.20;;;;;;4999960;28;87275;-54
2024/03/02 07:09:31;;;;;;;0.65;0.47;;;20.30;54.40;;;;;;5011050;28;87513;-58
2024/03/02 07:11:57;;;;;;;0.60;0.50;;;20.40;54.30;;;;;;5041061;27;89169;-57
2024/03/02 07:14:53;;;;;;;0.38;0.38;;;20.40;54.30;;;;;;5012790;27;87412;-57
2024/03/02 07:20:31;;;;;;;1.95;1.05;;;20.40;54.10;;;;;;4988593;27;87480;-59
2024/03/02 07:22:56;;;;;;;1.23;0.60;;;20.60;54.20;;;;;;5000531;27;89682;-56
2024/03/02 07:25:22;;;;;;;0.63;0.60;;;20.80;54.40;;;;;;5012931;28;88989;-56
2024/03/02 07:27:48;;;;;;;3.00;0.75;;;21.20;54.10;;;;;;5011812;28;87259;-58
2024/03/02 07:30:16;;;;;;;1.08;0.63;;;21.50;53.50;;;;;;5007498;27;88478;-55
2024/03/02 07:32:45;;;;;;;3.70;0.93;;;21.80;52.80;;;;;;4990656;28;89265;-58
2024/03/02 07:35:14;;;;;;;2.78;0.80;;;22.00;51.70;;;;;;4992616;28;87868;-56
2024/03/02 07:37:41;;;;;;;2.00;1.10;;;22.30;51.10;;;;;;5011211;27;88022;-56
2024/03/02 07:40:11;;;;;;;2.20;0.93;;;22.40;50.30;;;;;;5038917;27;86814;-56
2024/03/02 07:42:38;;;;;;;;;;;22.50;50.10;;;;;;4994309;27;88853;-56
2024/03/02 07:45:05;;;;;;;1.92;0.73;;;22.50;50.20;;;;;;5008107;28;88247;-54
2024/03/02 07:47:30;;;;;;;3.15;0.90;;;22.60;50.10;;;;;;4996358;28;88533;-57
2024/03/02 07:49:56;;;;;;;3.85;0.80;;;22.70;49.70;;;;;;5009667;28;87928;-57
2024/03/02 07:52:22;;;;;;;1.65;1.15;;;22.70;49.60;;;;;;5013337;28;88908;-58
2024/03/02 07:54:51;;;;;;;2.10;1.13;;;22.80;49.70;;;;;;5012581;28;87718;-55
2024/03/02 07:57:20;;;;;;;2.95;0.93;;;22.90;49.70;;;;;;5013002;28;86886;-60
2024/03/02 07:59:47;;;;;;;3.25;1.60;;;22.90;49.50;;;;;;5004458;28;87747;-56
2024/03/02 08:02:12;;;;;;;1.27;1.15;;;23.00;49.40;;;;;;4992816;28;88079;-59
2024/03/02 08:04:38;;;;;;;3.15;1.83;;;23.00;49.20;;;;;;4992216;27;87880;-57
2024/03/02 08:07:04;;;;;;;4.40;1.20;;;23.00;49.20;;;;;;5013110;28;87279;-60
2024/03/02 08:09:32;;;;;;;5.05;1.73;;;23.10;48.60;;;;;;5012894;27;87120;-54
2024/03/02 08:11:58;;;;;;;6.88;2.00;;;23.00;48.20;;;;;;5029271;27;90058;-57
2024/03/02 08:14:27;;;;;;;6.82;2.00;;;23.10;48.90;;;;;;5011681;27;89117;-58
2024/03/02 08:16:52;;;;;;;6.72;1.85;;;23.10;48.80;;;;;;5011670;27;86949;-58
2024/03/02 08:19:18;;;;;;;7.20;1.80;;;23.10;49.00;;;;;;5006901;28;87001;-56
2024/03/02 08:21:44;;;;;;;3.88;1.52;;;23.10;49.10;;;;;;4992046;28;89302;-56
2024/03/02 08:24:10;;;;;;;12.23;2.05;;;23.20;49.10;;;;;;4989259;27;87264;-58
2024/03/02 08:26:36;;;;;;;9.13;2.30;;;23.10;49.30;;;;;;5011252;27;87312;-56
2024/03/02 08:29:03;;;;;;;14.15;3.15;;;23.20;49.10;;;;;;5002513;27;86282;-58
2024/03/02 08:31:29;;;;;;;18.40;2.85;;;23.20;48.80;;;;;;5007256;28;87631;-58
2024/03/02 08:33:56;;;;;;;11.80;2.85;;;23.20;49.10;;;;;;4992917;28;87901;-59
2024/03/02 08:36:22;;;;;;;14.57;3.80;;;23.10;49.40;;;;;;5005367;27;88437;-59
2024/03/02 08:38:50;;;;;;;7.80;2.45;;;23.20;49.80;;;;;;4993234;28;87091;-60
2024/03/02 08:41:16;;;;;;;14.45;2.75;;;23.20;49.90;;;;;;4991657;28;88990;-58
2024/03/02 08:43:42;;;;;;;7.80;2.33;;;23.10;50.00;;;;;;4997393;27;87651;-58
2024/03/02 08:46:08;;;;;;;8.48;2.75;;;23.10;50.10;;;;;;5032678;27;87249;-55
2024/03/02 08:48:34;;;;;;;12.20;2.85;;;23.20;50.20;;;;;;4998939;27;88201;-60
2024/03/02 08:51:00;;;;;;;9.60;2.42;;;23.10;50.20;;;;;;4992906;28;88104;-57
2024/03/02 08:53:26;;;;;;;9.80;2.78;;;23.10;50.50;;;;;;4991252;28;88061;-60
2024/03/02 08:55:52;;;;;;;7.07;2.55;;;23.20;50.30;;;;;;5007631;27;87434;-58
2024/03/02 08:58:18;;;;;;;14.43;3.67;;;23.20;50.60;;;;;;5003123;27;88166;-60
2024/03/02 09:00:47;;;;;;;7.78;2.60;;;23.10;50.50;;;;;;4998625;28;89477;-57
2024/03/02 09:03:12;;;;;;;7.93;2.33;;;23.10;50.90;;;;;;5006501;28;90396;-54
2024/03/02 09:05:39;;;;;;;7.45;2.65;;;23.20;50.80;;;;;;4993571;28;87667;-61
2024/03/02 09:08:07;;;;;;;12.98;3.08;;;23.20;51.00;;;;;;5040914;27;87190;-60
2024/03/02 09:10:33;;;;;;;9.30;2.45;;;23.20;51.10;;;;;;4987615;27;87736;-61
2024/03/02 09:13:01;;;;;;;8.90;2.65;;;23.20;51.50;;;;;;5007653;28;88807;-51
2024/03/02 09:15:30;;;;;;;8.35;1.92;;;23.20;50.90;;;;;;4991507;28;87443;-54
2024/03/02 09:17:56;;;;;;;15.73;3.33;;;23.30;50.80;;;;;;4991797;27;88197;-56
2024/03/02 09:20:23;;;;;;;10.85;3.47;;;23.20;50.70;;;;;;4990458;28;88749;-58
2024/03/02 09:22:48;;;;;;;11.80;2.70;;;23.20;50.90;;;;;;4996986;27;87823;-54
2024/03/02 09:25:15;;;;;;;10.77;2.75;;;23.20;51.10;;;;;;4999529;28;88610;-55
2024/03/02 09:27:41;;;;;;;8.80;2.25;;;23.20;50.30;;;;;;4992751;28;87393;-57
2024/03/02 09:30:10;;;;;;;12.55;2.75;;;23.20;49.30;;;;;;4987190;28;88314;-57
2024/03/02 09:32:37;;;;;;;;;;;23.20;49.30;;;;;;4990771;28;87955;-53
2024/03/02 09:35:03;;;;;;;16.38;4.35;;;23.20;49.80;;;;;;5023814;27;86978;-57
2024/03/02 09:37:28;;;;;;;7.45;1.52;;;23.20;49.90;;;;;;5005101;27;88336;-58
2024/03/02 09:39:54;;;;;;;9.07;2.30;;;23.20;50.20;;;;;;5000617;28;89676;-57
2024/03/02 09:42:21;;;;;;;8.43;2.03;;;23.10;50.20;;;;;;4995341;28;88187;-56
2024/03/02 09:44:48;;;;;;;5.03;2.05;;;23.20;50.20;;;;;;4989699;28;88374;-58
2024/03/02 09:47:15;;;;;;;9.60;2.40;;;23.20;50.20;;;;;;4998470;28;87307;-56
2024/03/02 09:49:40;;;;;;;5.88;1.83;;;23.20;50.40;;;;;;5007167;27;89178;-57
2024/03/02 09:52:07;;;;;;;8.25;2.78;;;23.30;50.40;;;;;;5003908;28;88156;-56
2024/03/02 09:54:34;;;;;;;10.07;2.75;;;23.30;50.30;;;;;;4988831;28;87240;-54
2024/03/02 09:57:01;;;;;;;6.30;1.70;;;23.30;50.50;;;;;;4994519;28;88550;-56
2024/03/02 09:59:29;;;;;;;6.47;2.15;;;23.30;50.40;;;;;;5000972;27;88552;-52
2024/03/02 10:02:02;;;;;;;15.77;2.30;;;23.20;50.50;;;;;;4991284;28;88367;-56
2024/03/02 10:04:32;;;;;;;5.00;1.60;;;23.20;50.90;;;;;;4991475;28;86944;-53
2024/03/02 10:07:15;;;;;;;8.35;1.67;;;23.20;50.60;;;;;;4991129;28;86770;-55
2024/03/02 10:09:44;;;;;;;8.75;2.28;;;23.20;50.70;;;;;;4990198;28;89273;-54
2024/03/02 10:12:12;;;;;;;7.35;2.33;;;23.20;50.80;;;;;;4990401;28;88270;-52
2024/03/02 10:14:38;;;;;;;6.70;2.28;;;23.20;51.00;;;;;;4989085;28;87919;-55
2024/03/02 10:17:05;;;;;;;7.72;2.20;;;23.20;50.80;;;;;;5001147;27;87393;-58
2024/03/02 10:19:32;;;;;;;5.30;1.60;;;23.20;49.30;;;;;;4990700;27;88089;-56
2024/03/02 10:21:59;;;;;;;7.65;2.10;;;22.80;46.60;;;;;;4992062;28;87700;-56
2024/03/02 10:24:25;;;;;;;4.88;1.70;;;22.90;50.00;;;;;;5006639;27;87496;-55
2024/03/02 10:26:54;;;;;;;7.72;2.00;;;23.00;49.90;;;;;;4996336;28;87791;-60
2024/03/02 10:30:00;;;;;;;5.97;2.20;;;23.00;49.90;;;;;;5012394;28;88551;-63
2024/03/02 10:32:26;;;;;;;9.38;1.80;;;23.10;50.20;;;;;;5003155;28;87939;-63
2024/03/02 10:34:53;;;;;;;7.07;2.15;;;23.20;50.40;;;;;;4995058;27;86912;-61
2024/03/02 10:37:21;;;;;;;8.15;1.80;;;23.10;50.80;;;;;;5008906;28;87067;-61
2024/03/02 10:39:47;;;;;;;4.72;2.35;;;23.20;50.90;;;;;;5000151;27;89099;-61
2024/03/02 10:42:14;;;;;;;7.43;2.20;;;23.20;50.90;;;;;;5012760;27;88778;-61
2024/03/02 10:44:41;;;;;;;4.22;1.73;;;23.20;50.40;;;;;;4999133;28;87013;-60
2024/03/02 10:47:11;;;;;;;6.70;1.80;;;23.30;49.90;;;;;;4992204;28;88453;-60
2024/03/02 10:49:41;;;;;;;5.18;1.63;;;23.30;49.60;;;;;;5012880;28;88215;-55
2024/03/02 10:52:09;;;;;;;6.28;1.92;;;23.40;49.40;;;;;;5006348;28;88163;-52
2024/03/02 10:54:39;;;;;;;3.35;1.58;;;23.50;49.30;;;;;;5013041;27;87497;-58
2024/03/02 10:57:09;;;;;;;7.05;2.17;;;23.60;49.50;;;;;;5003707;27;86803;-52
2024/03/02 10:59:39;;;;;;;5.47;1.85;;;23.70;50.00;;;;;;4992639;28;88556;-56
2024/03/02 11:02:08;;;;;;;4.30;1.65;;;23.70;50.20;;;;;;5004560;27;88484;-55
2024/03/02 11:04:36;;;;;;;7.57;2.00;;;23.70;50.50;;;;;;5010360;28;88114;-54
2024/03/02 11:07:06;;;;;;;4.47;1.45;;;23.70;51.10;;;;;;5008559;28;87783;-54
2024/03/02 11:09:35;;;;;;;6.53;1.92;;;23.70;51.50;;;;;;5001643;28;89275;-57
2024/03/02 11:12:18;;;;;;;;;;;23.70;52.00;;;;;;4998334;28;88687;-56
2024/03/02 11:14:45;;;;;;;3.85;1.85;;;23.60;52.30;;;;;;5005998;28;87084;-57
2024/03/02 11:17:13;;;;;;;6.28;1.65;;;23.60;52.60;;;;;;4996089;28;87817;-51
2024/03/02 11:19:41;;;;;;;6.43;1.73;;;23.60;52.80;;;;;;5006688;27;90093;-56
2024/03/02 11:22:08;;;;;;;3.92;1.40;;;23.60;52.70;;;;;;5005081;28;87756;-57
2024/03/02 11:24:34;;;;;;;2.92;1.40;;;23.60;52.70;;;;;;5000052;28;88136;-56
2024/03/02 11:27:01;;;;;;;4.40;1.58;;;23.70;52.40;;;;;;5019984;28;88376;-57
2024/03/02 11:29:36;;;;;;;5.03;1.90;;;23.70;51.60;;;;;;5003727;28;89629;-54
2024/03/02 11:32:13;;;;;;;6.00;1.48;;;23.70;51.20;;;;;;4994061;28;88480;-55
2024/03/02 11:34:45;;;;;;;5.90;1.75;;;23.70;51.10;;;;;;5009870;27;87814;-54
2024/03/02 11:37:11;;;;;;;5.43;1.77;;;23.60;50.30;;;;;;5001496;28;88822;-59
2024/03/02 11:39:39;;;;;;;5.10;1.77;;;23.60;50.90;;;;;;4995108;28;88062;-56
2024/03/02 11:42:09;;;;;;;2.10;1.15;;;23.60;50.70;;;;;;4988486;28;87232;-57
2024/03/02 11:44:35;;;;;;;5.93;1.77;;;23.60;51.20;;;;;;4998308;28;88197;-56
2024/03/02 11:47:02;;;;;;;4.22;1.60;;;23.70;51.20;;;;;;5027774;27;87928;-58
2024/03/02 11:49:45;;;;;;;6.80;2.20;;;23.60;51.40;;;;;;5004143;27;89043;-57
2024/03/02 11:52:13;;;;;;;3.78;1.65;;;23.60;51.70;;;;;;4991152;28;89351;-55
2024/03/02 11:54:41;;;;;;;6.45;1.90;;;23.70;51.70;;;;;;5007736;28;88325;-56
2024/03/02 11:57:08;;;;;;;5.23;1.43;;;23.70;51.70;;;;;;5042147;27;87723;-59
2024/03/02 11:59:34;;;;;;;4.13;1.65;;;23.70;51.70;;;;;;5011841;27;89073;-54
2024/03/02 12:02:00;;;;;;;4.80;1.42;;;23.70;51.70;;;;;;5001553;27;87387;-57
2024/03/02 12:04:28;;;;;;;5.60;1.70;;;23.60;47.00;;;;;;5005786;28;87234;-54
2024/03/02 12:06:56;;;;;;;2.72;1.10;;;23.60;51.00;;;;;;4991952;28;88410;-54
2024/03/02 12:09:22;;;;;;;6.78;1.98;;;23.60;51.10;;;;;;5001314;28;88916;-56
2024/03/02 12:11:49;;;;;;;6.95;2.25;;;23.60;51.20;;;;;;5044001;27;86837;-55
2024/03/02 12:14:15;;;;;;;6.78;2.45;;;23.60;51.30;;;;;;4995131;28;87422;-55
2024/03/02 12:16:44;;;;;;;5.40;1.73;;;23.70;51.00;;;;;;5039780;27;87886;-55
2024/03/02 12:19:10;;;;;;;;;;;23.60;51.10;;;;;;5002653;28;88686;-55
2024/03/02 12:21:37;;;;;;;5.18;1.42;;;23.70;51.10;;;;;;5025469;27;88971;-53
2024/03/02 12:24:03;;;;;;;4.35;1.25;;;23.60;51.20;;;;;;4991772;28;86992;-56
2024/03/02 12:26:29;;;;;;;4.07;1.75;;;23.60;51.20;;;;;;4993211;28;87404;-53
2024/03/02 12:28:56;;;;;;;4.85;1.50;;;23.70;51.30;;;;;;4997314;28;88906;-56
2024/03/02 12:31:24;;;;;;;4.57;1.88;;;23.70;51.10;;;;;;5005160;28;89024;-55
2024/03/02 12:33:49;;;;;;;4.93;2.13;;;23.70;51.10;;;;;;5003675;28;87457;-55
2024/03/02 12:36:15;;;;;;;6.05;1.50;;;23.70;51.10;;;;;;5008220;28;87505;-57
2024/03/02 12:38:44;;;;;;;28.73;5.20;;;23.70;51.20;;;;;;5009752;28;87710;-51
2024/03/02 12:41:11;;;;;;;36.20;7.10;;;23.60;51.30;;;;;;5003277;27;88183;-56
2024/03/02 12:43:39;;;;;;;36.58;6.63;;;23.60;51.50;;;;;;4995050;27;88688;-56
2024/03/02 12:46:05;;;;;;;25.70;6.25;;;23.60;51.30;;;;;;5028439;27;87552;-57
2024/03/02 12:48:31;;;;;;;29.60;6.47;;;23.70;51.40;;;;;;5000792;28;87320;-51
2024/03/02 12:50:56;;;;;;;28.60;8.07;;;23.70;51.20;;;;;;4996161;28;87588;-54
2024/03/02 12:53:24;;;;;;;31.48;7.32;;;23.70;51.10;;;;;;5003016;28;87436;-52
2024/03/02 12:55:50;;;;;;;20.50;5.07;;;23.80;51.30;;;;;;4999807;28;89854;-53
2024/03/02 12:58:23;;;;;;;26.50;6.63;;;23.80;51.20;;;;;;5006639;28;88440;-57
2024/03/02 13:00:49;;;;;;;21.33;5.40;;;23.70;51.30;;;;;;4999064;28;88928;-55